createdAt,value
2022-08-01T00:00:19.404Z,38.18
2022-08-01T00:01:22.224Z,38.00
2022-08-01T00:02:25.080Z,38.08
2022-08-01T00:03:27.254Z,38.24
2022-08-01T00:04:29.531Z,38.12
2022-08-01T00:05:32.783Z,37.77
2022-08-01T00:06:36.013Z,37.90
2022-08-01T00:07:38.371Z,37.95
2022-08-01T00:08:41.282Z,38.23
2022-08-01T00:09:43.834Z,38.17
2022-08-01T00:10:46.958Z,38.21
2022-08-01T00:11:49.174Z,38.24
2022-08-01T00:12:54.303Z,38.20
2022-08-01T00:13:56.685Z,38.15
2022-08-01T00:15:00.256Z,38.09
2022-08-01T00:16:04.768Z,38.01
2022-08-01T00:17:07.681Z,38.05
2022-08-01T00:18:10.306Z,38.14
2022-08-01T00:19:12.668Z,38.16
2022-08-01T00:20:15.954Z,38.21
2022-08-01T00:21:18.502Z,38.01
2022-08-01T00:22:21.082Z,38.04
2022-08-01T00:23:23.562Z,37.78
2022-08-01T00:24:25.793Z,37.78
2022-08-01T00:25:33.841Z,37.62
2022-08-01T00:26:33.097Z,37.76
2022-08-01T00:27:37.596Z,37.92
2022-08-01T00:28:40.790Z,37.92
2022-08-01T00:30:10.002Z,38.06
2022-08-01T00:30:47.869Z,38.08
2022-08-01T00:31:51.504Z,37.82
2022-08-01T00:32:53.926Z,37.90
2022-08-01T00:33:56.488Z,37.97
2022-08-01T00:34:58.753Z,37.90
2022-08-01T00:36:01.699Z,37.95
2022-08-01T00:37:03.861Z,37.81
2022-08-01T00:38:07.275Z,37.84
2022-08-01T00:39:09.838Z,37.85
2022-08-01T00:40:12.815Z,37.85
2022-08-01T00:41:15.566Z,37.82
2022-08-01T00:42:18.718Z,37.84
2022-08-01T00:43:21.123Z,37.84
2022-08-01T00:44:24.513Z,37.81
2022-08-01T00:45:26.839Z,37.83
2022-08-01T00:46:30.511Z,37.83
2022-08-01T00:47:33.128Z,37.98
2022-08-01T00:48:35.481Z,37.98
2022-08-01T00:49:37.983Z,37.80
2022-08-01T00:50:40.630Z,37.83
2022-08-01T00:51:44.939Z,37.81
2022-08-01T00:52:51.659Z,38.01
2022-08-01T00:53:52.423Z,38.01
2022-08-01T00:54:55.300Z,37.75
2022-08-01T00:55:57.566Z,37.77
2022-08-01T00:56:59.941Z,37.71
2022-08-01T00:58:05.691Z,37.68
2022-08-01T00:59:06.621Z,37.67
2022-08-01T01:00:11.841Z,37.71
2022-08-01T01:01:15.855Z,37.75
2022-08-01T01:02:19.929Z,37.73
2022-08-01T01:03:37.904Z,37.70
2022-08-01T01:04:28.437Z,37.61
2022-08-01T01:05:37.293Z,37.56
2022-08-01T01:06:50.880Z,37.59
2022-08-01T01:08:04.973Z,37.48
2022-08-01T01:09:40.350Z,37.63
2022-08-01T01:11:00.521Z,37.70
2022-08-01T01:12:24.705Z,37.76
2022-08-01T01:13:50.020Z,37.80
2022-08-01T01:16:05.029Z,37.69
2022-08-01T01:17:07.755Z,37.60
2022-08-01T01:18:16.963Z,37.83
2022-08-01T01:19:21.784Z,37.88
2022-08-01T01:21:57.636Z,37.96
2022-08-01T01:23:23.761Z,37.96
2022-08-01T01:24:52.126Z,37.98
2022-08-01T01:26:17.444Z,37.99
2022-08-01T01:27:26.875Z,37.86
2022-08-01T01:28:58.175Z,37.74
2022-08-01T01:30:01.276Z,37.78
2022-08-01T01:31:04.154Z,37.78
2022-08-01T01:32:09.154Z,37.56
2022-08-01T01:33:13.586Z,37.80
2022-08-01T01:34:17.783Z,37.83
2022-08-01T01:36:41.172Z,37.78
2022-08-01T01:37:44.179Z,37.79
2022-08-01T01:38:49.561Z,37.86
2022-08-01T01:39:54.304Z,37.96
2022-08-01T01:40:56.936Z,37.92
2022-08-01T01:41:59.170Z,37.99
2022-08-01T01:43:01.352Z,38.00
2022-08-01T01:44:05.511Z,38.06
2022-08-01T01:45:08.398Z,38.03
2022-08-01T01:46:11.830Z,38.06
2022-08-01T01:47:14.237Z,38.05
2022-08-01T01:49:30.249Z,38.07
2022-08-01T01:50:33.865Z,37.94
2022-08-01T01:51:37.055Z,37.96
2022-08-01T01:52:39.925Z,37.88
2022-08-01T01:53:43.550Z,37.85
2022-08-01T01:55:59.534Z,37.87
2022-08-01T01:57:02.889Z,38.02
2022-08-01T01:58:05.868Z,38.00
2022-08-01T01:59:09.055Z,38.02
2022-08-01T02:00:13.148Z,38.01
2022-08-01T02:01:15.538Z,38.05
2022-08-01T02:02:19.994Z,38.01
2022-08-01T02:03:22.803Z,38.05
2022-08-01T02:04:25.871Z,37.97
2022-08-01T02:05:28.099Z,38.05
2022-08-01T02:06:31.251Z,37.96
2022-08-01T02:07:33.572Z,37.93
2022-08-01T02:08:35.820Z,37.96
2022-08-01T02:09:38.916Z,37.78
2022-08-01T02:10:41.263Z,37.75
2022-08-01T02:11:59.159Z,37.56
2022-08-01T02:12:51.566Z,37.49
2022-08-01T02:15:14.924Z,37.71
2022-08-01T02:16:18.292Z,37.73
2022-08-01T02:17:22.019Z,37.59
2022-08-01T02:18:25.209Z,37.40
2022-08-01T02:19:27.587Z,37.43
2022-08-01T02:20:31.429Z,37.53
2022-08-01T02:22:58.789Z,37.49
2022-08-01T02:25:22.317Z,37.57
2022-08-01T02:29:31.691Z,37.59
2022-08-01T02:30:36.493Z,37.64
2022-08-01T02:31:39.974Z,37.45
2022-08-01T02:32:44.911Z,37.52
2022-08-01T02:34:02.881Z,37.65
2022-08-01T02:35:06.146Z,37.67
2022-08-01T02:36:30.351Z,37.51
2022-08-01T02:37:13.199Z,37.53
2022-08-01T02:38:15.550Z,37.52
2022-08-01T02:39:18.539Z,37.58
2022-08-01T02:40:21.886Z,37.50
2022-08-01T02:41:25.950Z,37.56
2022-08-01T02:42:28.513Z,37.57
2022-08-01T02:43:31.099Z,37.54
2022-08-01T02:44:37.812Z,37.58
2022-08-01T02:45:43.278Z,37.62
2022-08-01T02:46:58.242Z,37.59
2022-08-01T02:48:04.372Z,37.64
2022-08-01T02:49:08.348Z,37.59
2022-08-01T02:50:11.757Z,37.59
2022-08-01T02:51:14.272Z,37.63
2022-08-01T02:52:17.804Z,37.63
2022-08-01T02:53:21.129Z,37.60
2022-08-01T02:54:23.861Z,37.65
2022-08-01T02:55:26.007Z,37.65
2022-08-01T02:56:28.879Z,37.63
2022-08-01T02:57:45.426Z,37.60
2022-08-01T02:58:36.246Z,37.61
2022-08-01T02:59:38.558Z,37.56
2022-08-01T03:00:43.765Z,37.58
2022-08-01T03:01:46.240Z,37.35
2022-08-01T03:02:48.898Z,37.47
2022-08-01T03:03:51.389Z,37.52
2022-08-01T03:04:56.951Z,37.59
2022-08-01T03:05:58.133Z,37.62
2022-08-01T03:07:01.214Z,37.65
2022-08-01T03:08:03.943Z,37.61
2022-08-01T03:09:06.970Z,37.61
2022-08-01T03:10:10.448Z,37.61
2022-08-01T03:11:12.817Z,37.61
2022-08-01T03:12:17.666Z,37.61
2022-08-01T03:13:21.021Z,37.58
2022-08-01T03:14:25.636Z,37.56
2022-08-01T03:15:28.308Z,37.54
2022-08-01T03:16:31.802Z,37.56
2022-08-01T03:17:34.260Z,37.56
2022-08-01T03:18:37.336Z,37.50
2022-08-01T03:19:42.154Z,37.55
2022-08-01T03:20:44.895Z,37.44
2022-08-01T03:21:48.518Z,37.45
2022-08-01T03:22:51.219Z,37.45
2022-08-01T03:23:55.303Z,37.45
2022-08-01T03:24:58.069Z,37.43
2022-08-01T03:26:00.227Z,37.25
2022-08-01T03:27:04.256Z,37.11
2022-08-01T03:28:08.253Z,36.86
2022-08-01T03:29:15.182Z,37.09
2022-08-01T03:30:20.117Z,37.28
2022-08-01T03:31:22.682Z,37.36
2022-08-01T03:32:25.664Z,37.30
2022-08-01T03:33:28.199Z,37.34
2022-08-01T03:34:30.470Z,37.13
2022-08-01T03:36:52.303Z,36.82
2022-08-01T03:38:15.155Z,36.91
2022-08-01T03:39:01.233Z,37.08
2022-08-01T03:40:09.941Z,37.24
2022-08-01T03:41:13.969Z,37.10
2022-08-01T03:42:18.850Z,37.13
2022-08-01T03:43:23.884Z,37.21
2022-08-01T03:44:29.422Z,37.21
2022-08-01T03:45:40.596Z,37.19
2022-08-01T03:46:47.760Z,37.11
2022-08-01T03:47:53.706Z,37.03
2022-08-01T03:48:56.108Z,37.10
2022-08-01T03:49:59.031Z,37.11
2022-08-01T03:51:01.571Z,37.22
2022-08-01T03:52:04.918Z,36.82
2022-08-01T03:53:07.644Z,37.01
2022-08-01T03:54:10.143Z,36.74
2022-08-01T03:55:12.801Z,36.90
2022-08-01T03:56:18.281Z,37.03
2022-08-01T03:57:35.858Z,36.88
2022-08-01T03:58:26.238Z,37.13
2022-08-01T03:59:30.039Z,37.26
2022-08-01T04:00:33.116Z,36.64
2022-08-01T04:01:36.198Z,36.64
2022-08-01T04:02:38.591Z,36.95
2022-08-01T04:03:41.732Z,37.08
2022-08-01T04:04:45.577Z,37.13
2022-08-01T04:05:47.794Z,36.59
2022-08-01T04:06:50.458Z,37.23
2022-08-01T04:07:53.333Z,37.23
2022-08-01T04:08:55.676Z,37.04
2022-08-01T04:09:58.035Z,37.07
2022-08-01T04:11:00.826Z,36.97
2022-08-01T04:12:12.201Z,37.06
2022-08-01T04:13:07.914Z,37.06
2022-08-01T04:14:10.479Z,36.98
2022-08-01T04:15:12.747Z,37.00
2022-08-01T04:16:16.740Z,36.57
2022-08-01T04:17:19.305Z,36.43
2022-08-01T04:18:21.567Z,36.66
2022-08-01T04:19:24.120Z,36.58
2022-08-01T04:20:27.110Z,36.77
2022-08-01T04:21:31.517Z,36.84
2022-08-01T04:22:37.328Z,36.90
2022-08-01T04:23:39.114Z,36.44
2022-08-01T04:24:41.882Z,36.66
2022-08-01T04:25:44.513Z,36.87
2022-08-01T04:26:47.015Z,36.76
2022-08-01T04:27:51.992Z,36.84
2022-08-01T04:28:54.508Z,36.90
2022-08-01T04:29:58.338Z,36.87
2022-08-01T04:31:02.265Z,36.91
2022-08-01T04:32:05.851Z,36.91
2022-08-01T04:33:08.559Z,36.87
2022-08-01T04:34:11.026Z,36.41
2022-08-01T04:35:34.857Z,36.59
2022-08-01T04:36:21.405Z,36.66
2022-08-01T04:37:25.175Z,36.27
2022-08-01T04:38:28.317Z,36.36
2022-08-01T04:39:32.012Z,36.55
2022-08-01T04:40:35.539Z,36.55
2022-08-01T04:41:38.097Z,36.69
2022-08-01T04:42:40.568Z,36.78
2022-08-01T04:43:44.402Z,36.63
2022-08-01T04:44:47.073Z,36.63
2022-08-01T04:45:49.398Z,36.64
2022-08-01T04:46:52.917Z,36.68
2022-08-01T04:47:55.371Z,36.65
2022-08-01T04:48:57.786Z,36.28
2022-08-01T04:50:01.242Z,36.44
2022-08-01T04:51:05.291Z,36.46
2022-08-01T04:52:08.110Z,36.40
2022-08-01T04:53:15.799Z,36.44
2022-08-01T04:54:18.678Z,36.47
2022-08-01T04:55:21.206Z,36.53
2022-08-01T04:56:24.916Z,36.52
2022-08-01T04:57:27.773Z,36.56
2022-08-01T04:58:29.987Z,36.46
2022-08-01T05:00:47.502Z,36.47
2022-08-01T05:01:50.656Z,36.51
2022-08-01T05:02:54.118Z,36.52
2022-08-01T05:03:56.588Z,36.68
2022-08-01T05:04:59.221Z,36.68
2022-08-01T05:06:01.383Z,36.56
2022-08-01T05:07:04.248Z,36.42
2022-08-01T05:08:06.960Z,36.38
2022-08-01T05:09:10.759Z,36.39
2022-08-01T05:10:13.951Z,36.39
2022-08-01T05:11:17.329Z,36.40
2022-08-01T05:12:21.848Z,36.44
2022-08-01T05:13:24.728Z,36.43
2022-08-01T05:14:27.320Z,36.42
2022-08-01T05:15:29.803Z,36.45
2022-08-01T05:16:33.325Z,36.39
2022-08-01T05:17:35.583Z,36.34
2022-08-01T05:18:38.051Z,36.43
2022-08-01T05:19:41.125Z,36.44
2022-08-01T05:20:43.398Z,36.49
2022-08-01T05:21:45.680Z,36.53
2022-08-01T05:22:48.166Z,36.53
2022-08-01T05:23:50.508Z,36.49
2022-08-01T05:24:52.842Z,36.49
2022-08-01T05:25:58.990Z,36.46
2022-08-01T05:27:02.304Z,36.48
2022-08-01T05:28:06.246Z,36.52
2022-08-01T05:29:08.794Z,36.52
2022-08-01T05:30:12.080Z,36.46
2022-08-01T05:31:14.791Z,36.47
2022-08-01T05:32:17.360Z,36.47
2022-08-01T05:33:19.718Z,36.49
2022-08-01T05:34:22.094Z,36.47
2022-08-01T05:35:24.793Z,36.49
2022-08-01T05:36:29.980Z,36.53
2022-08-01T05:37:32.349Z,36.50
2022-08-01T05:38:35.426Z,36.54
2022-08-01T05:39:37.785Z,36.56
2022-08-01T05:40:41.024Z,36.55
2022-08-01T05:41:43.946Z,36.62
2022-08-01T05:42:47.360Z,36.60
2022-08-01T05:43:51.131Z,36.54
2022-08-01T05:44:54.562Z,36.61
2022-08-01T05:45:57.802Z,36.55
2022-08-01T05:47:00.866Z,36.61
2022-08-01T05:48:05.792Z,36.55
2022-08-01T05:49:08.272Z,36.63
2022-08-01T05:50:11.231Z,36.46
2022-08-01T05:51:14.083Z,36.51
2022-08-01T05:52:16.470Z,36.54
2022-08-01T05:53:19.320Z,36.52
2022-08-01T05:54:21.601Z,36.50
2022-08-01T05:55:23.972Z,36.44
2022-08-01T05:56:32.093Z,36.56
2022-08-01T05:57:32.683Z,36.46
2022-08-01T05:58:35.038Z,36.45
2022-08-01T05:59:37.803Z,36.61
2022-08-01T06:00:40.386Z,36.51
2022-08-01T06:01:44.879Z,36.43
2022-08-01T06:02:47.459Z,36.56
2022-08-01T06:03:49.752Z,36.53
2022-08-01T06:04:53.100Z,36.50
2022-08-01T06:05:55.618Z,36.50
2022-08-01T06:06:57.996Z,36.45
2022-08-01T06:08:00.603Z,36.44
2022-08-01T06:09:03.204Z,36.46
2022-08-01T06:10:07.218Z,36.34
2022-08-01T06:11:09.523Z,36.34
2022-08-01T06:12:13.623Z,36.42
2022-08-01T06:13:17.223Z,36.51
2022-08-01T06:14:19.612Z,36.48
2022-08-01T06:15:22.458Z,36.43
2022-08-01T06:16:26.468Z,36.40
2022-08-01T06:17:29.965Z,36.40
2022-08-01T06:18:33.543Z,36.28
2022-08-01T06:19:35.898Z,36.44
2022-08-01T06:20:39.596Z,36.35
2022-08-01T06:21:42.000Z,36.49
2022-08-01T06:22:44.323Z,36.33
2022-08-01T06:23:48.732Z,36.33
2022-08-01T06:24:50.990Z,36.35
2022-08-01T06:25:53.355Z,36.24
2022-08-01T06:26:58.401Z,36.25
2022-08-01T06:28:01.249Z,36.21
2022-08-01T06:29:04.741Z,36.31
2022-08-01T06:30:08.473Z,36.27
2022-08-01T06:31:10.898Z,36.31
2022-08-01T06:32:13.359Z,36.31
2022-08-01T06:33:18.283Z,36.29
2022-08-01T06:34:20.693Z,36.29
2022-08-01T06:35:22.985Z,36.35
2022-08-01T06:36:27.286Z,36.28
2022-08-01T06:37:30.602Z,36.20
2022-08-01T06:38:33.061Z,36.27
2022-08-01T06:39:35.346Z,36.21
2022-08-01T06:40:37.920Z,36.22
2022-08-01T06:41:40.970Z,36.20
2022-08-01T06:42:43.852Z,36.15
2022-08-01T06:43:46.411Z,36.16
2022-08-01T06:44:49.026Z,36.13
2022-08-01T06:45:51.442Z,36.21
2022-08-01T06:46:53.907Z,36.20
2022-08-01T06:47:56.285Z,36.15
2022-08-01T06:48:58.790Z,36.27
2022-08-01T06:50:01.914Z,36.09
2022-08-01T06:51:04.399Z,36.14
2022-08-01T06:52:07.007Z,36.14
2022-08-01T06:53:09.803Z,36.12
2022-08-01T06:54:12.801Z,36.09
2022-08-01T06:56:29.380Z,36.07
2022-08-01T06:57:32.576Z,36.07
2022-08-01T06:58:35.158Z,36.02
2022-08-01T06:59:38.638Z,36.17
2022-08-01T07:00:41.446Z,36.09
2022-08-01T07:01:43.904Z,36.10
2022-08-01T07:02:46.329Z,36.07
2022-08-01T07:03:53.656Z,36.08
2022-08-01T07:04:53.816Z,36.22
2022-08-01T07:05:56.089Z,35.99
2022-08-01T07:06:58.647Z,36.19
2022-08-01T07:08:01.201Z,36.17
2022-08-01T07:09:09.656Z,36.14
2022-08-01T07:10:10.302Z,36.22
2022-08-01T07:11:13.012Z,36.20
2022-08-01T07:12:16.439Z,36.13
2022-08-01T07:13:19.922Z,36.18
2022-08-01T07:14:23.252Z,36.09
2022-08-01T07:15:26.671Z,36.11
2022-08-01T07:16:31.776Z,36.23
2022-08-01T07:17:39.736Z,36.16
2022-08-01T07:18:43.067Z,36.26
2022-08-01T07:19:45.839Z,36.39
2022-08-01T07:20:51.820Z,36.44
2022-08-01T07:21:54.406Z,36.44
2022-08-01T07:22:57.317Z,36.21
2022-08-01T07:23:59.688Z,36.20
2022-08-01T07:25:05.696Z,36.15
2022-08-01T07:26:08.294Z,35.98
2022-08-01T07:27:25.616Z,36.05
2022-08-01T07:28:16.304Z,36.02
2022-08-01T07:29:19.624Z,35.93
2022-08-01T07:30:23.805Z,35.96
2022-08-01T07:31:30.559Z,35.73
2022-08-01T07:32:32.428Z,35.87
2022-08-01T07:33:48.674Z,35.95
2022-08-01T07:34:43.012Z,35.91
2022-08-01T07:35:45.966Z,35.90
2022-08-01T07:36:48.923Z,35.91
2022-08-01T07:37:51.651Z,35.50
2022-08-01T07:38:55.334Z,35.76
2022-08-01T07:39:59.796Z,35.89
2022-08-01T07:41:02.665Z,35.95
2022-08-01T07:42:08.404Z,35.99
2022-08-01T07:43:11.381Z,35.94
2022-08-01T07:44:14.773Z,35.92
2022-08-01T07:45:17.638Z,35.68
2022-08-01T07:46:22.071Z,35.73
2022-08-01T07:47:25.799Z,35.51
2022-08-01T07:48:28.327Z,35.60
2022-08-01T07:49:32.879Z,35.72
2022-08-01T07:50:35.428Z,35.72
2022-08-01T07:51:38.588Z,35.71
2022-08-01T07:52:41.248Z,35.65
2022-08-01T07:53:43.714Z,35.76
2022-08-01T07:54:50.431Z,35.86
2022-08-01T07:55:50.477Z,35.91
2022-08-01T07:56:53.247Z,35.79
2022-08-01T07:57:55.839Z,35.83
2022-08-01T07:58:59.002Z,35.97
2022-08-01T08:00:02.181Z,35.97
2022-08-01T08:01:07.257Z,36.06
2022-08-01T08:02:10.394Z,36.07
2022-08-01T08:03:13.695Z,35.95
2022-08-01T08:04:17.310Z,36.09
2022-08-01T08:05:57.875Z,36.16
2022-08-01T08:06:25.338Z,36.13
2022-08-01T08:07:28.886Z,36.31
2022-08-01T08:08:31.235Z,36.38
2022-08-01T08:09:37.865Z,36.37
2022-08-01T08:10:38.525Z,36.46
2022-08-01T08:12:56.368Z,36.54
2022-08-01T08:14:00.153Z,36.48
2022-08-01T08:15:05.311Z,36.40
2022-08-01T08:16:09.734Z,36.52
2022-08-01T08:17:13.974Z,36.62
2022-08-01T08:18:16.363Z,36.63
2022-08-01T08:19:18.801Z,36.62
2022-08-01T08:20:21.899Z,36.67
2022-08-01T08:21:25.028Z,36.83
2022-08-01T08:22:27.427Z,36.57
2022-08-01T08:23:42.088Z,36.35
2022-08-01T08:24:35.276Z,36.21
2022-08-01T08:25:40.225Z,36.13
2022-08-01T08:26:44.251Z,36.09
2022-08-01T08:27:50.432Z,36.08
2022-08-01T08:28:52.791Z,36.07
2022-08-01T08:29:55.978Z,35.99
2022-08-01T08:31:01.066Z,36.04
2022-08-01T08:32:05.770Z,36.13
2022-08-01T08:33:13.734Z,36.18
2022-08-01T08:34:15.156Z,36.17
2022-08-01T08:35:40.264Z,35.99
2022-08-01T08:36:31.312Z,35.88
2022-08-01T08:37:31.479Z,35.81
2022-08-01T08:38:37.872Z,35.82
2022-08-01T08:39:43.165Z,35.80
2022-08-01T08:40:45.821Z,35.86
2022-08-01T08:41:49.510Z,35.92
2022-08-01T08:42:53.542Z,35.92
2022-08-01T08:43:58.388Z,35.95
2022-08-01T08:45:06.816Z,35.97
2022-08-01T08:46:12.128Z,36.15
2022-08-01T08:47:19.700Z,36.19
2022-08-01T08:48:19.635Z,36.23
2022-08-01T08:49:26.370Z,36.22
2022-08-01T08:50:30.296Z,36.23
2022-08-01T08:51:34.274Z,36.32
2022-08-01T08:52:39.159Z,36.35
2022-08-01T08:53:41.681Z,36.36
2022-08-01T08:54:44.030Z,36.39
2022-08-01T08:55:55.380Z,36.40
2022-08-01T08:56:57.561Z,36.50
2022-08-01T08:58:00.942Z,36.57
2022-08-01T08:59:03.815Z,36.55
2022-08-01T09:00:08.275Z,36.52
2022-08-01T09:01:11.111Z,36.53
2022-08-01T09:02:14.768Z,36.53
2022-08-01T09:03:17.654Z,36.51
2022-08-01T09:04:23.470Z,36.58
2022-08-01T09:05:38.590Z,36.74
2022-08-01T09:06:34.812Z,36.90
2022-08-01T09:07:37.231Z,37.07
2022-08-01T09:08:39.615Z,37.04
2022-08-01T09:09:42.134Z,37.09
2022-08-01T09:10:45.059Z,37.11
2022-08-01T09:11:56.806Z,37.12
2022-08-01T09:14:21.554Z,37.12
2022-08-01T09:15:45.696Z,37.15
2022-08-01T09:16:49.138Z,37.08
2022-08-01T09:17:52.782Z,37.06
2022-08-01T09:18:55.328Z,37.03
2022-08-01T09:19:59.292Z,37.11
2022-08-01T09:21:11.402Z,37.16
2022-08-01T09:22:15.952Z,37.21
2022-08-01T09:24:46.511Z,37.47
2022-08-01T09:25:51.678Z,37.69
2022-08-01T09:26:56.636Z,37.75
2022-08-01T09:28:04.321Z,38.03
2022-08-01T09:29:07.591Z,38.12
2022-08-01T09:30:19.477Z,38.22
2022-08-01T09:31:22.780Z,38.22
2022-08-01T09:32:25.909Z,38.40
2022-08-01T09:33:36.890Z,38.28
2022-08-01T09:34:36.924Z,38.56
2022-08-01T09:35:43.992Z,38.60
2022-08-01T09:36:47.182Z,38.77
2022-08-01T09:37:51.208Z,38.84
2022-08-01T09:38:55.583Z,38.93
2022-08-01T09:39:57.932Z,38.98
2022-08-01T09:41:04.102Z,39.03
2022-08-01T09:43:33.249Z,38.74
2022-08-01T09:44:45.597Z,38.72
2022-08-01T09:45:50.638Z,38.84
2022-08-01T09:46:54.108Z,38.82
2022-08-01T09:47:58.206Z,38.92
2022-08-01T09:49:02.259Z,38.95
2022-08-01T09:50:10.834Z,39.05
2022-08-01T09:51:11.952Z,38.97
2022-08-01T09:52:19.177Z,39.37
2022-08-01T09:53:29.646Z,39.23
2022-08-01T09:54:33.681Z,39.49
2022-08-01T09:55:37.986Z,39.53
2022-08-01T09:56:41.704Z,39.55
2022-08-01T09:57:56.798Z,39.58
2022-08-01T09:59:01.414Z,39.56
2022-08-01T10:00:05.248Z,39.50
2022-08-01T10:01:16.761Z,39.60
2022-08-01T10:02:37.637Z,39.83
2022-08-01T10:03:40.237Z,39.79
2022-08-01T10:04:50.834Z,39.95
2022-08-01T10:05:53.957Z,40.00
2022-08-01T10:07:06.273Z,40.13
2022-08-01T10:08:08.790Z,40.26
2022-08-01T10:09:13.529Z,40.18
2022-08-01T10:10:17.056Z,40.20
2022-08-01T10:11:20.162Z,40.25
2022-08-01T10:12:23.601Z,40.22
2022-08-01T10:13:25.920Z,40.36
2022-08-01T10:14:30.108Z,40.33
2022-08-01T10:15:36.903Z,40.34
2022-08-01T10:16:38.383Z,40.31
2022-08-01T10:17:50.719Z,40.34
2022-08-01T10:18:45.627Z,40.34
2022-08-01T10:19:49.725Z,40.41
2022-08-01T10:20:56.637Z,40.47
2022-08-01T10:22:00.212Z,40.50
2022-08-01T10:23:05.981Z,40.51
2022-08-01T10:24:08.495Z,40.57
2022-08-01T10:25:13.351Z,40.61
2022-08-01T10:26:16.491Z,40.67
2022-08-01T10:27:35.723Z,40.63
2022-08-01T10:28:24.408Z,40.66
2022-08-01T10:29:59.178Z,40.65
2022-08-01T10:30:33.516Z,40.75
2022-08-01T10:31:37.102Z,40.70
2022-08-01T10:32:41.443Z,40.75
2022-08-01T10:33:51.865Z,40.72
2022-08-01T10:34:49.719Z,40.80
2022-08-01T10:35:52.822Z,40.78
2022-08-01T10:36:55.368Z,40.83
2022-08-01T10:37:58.783Z,40.55
2022-08-01T10:39:01.025Z,40.55
2022-08-01T10:40:28.875Z,40.58
2022-08-01T10:41:09.214Z,40.49
2022-08-01T10:42:15.575Z,40.46
2022-08-01T10:43:21.518Z,40.39
2022-08-01T10:44:23.946Z,40.38
2022-08-01T10:45:27.575Z,40.34
2022-08-01T10:46:32.090Z,40.31
2022-08-01T10:47:51.494Z,40.28
2022-08-01T10:49:01.836Z,40.25
2022-08-01T10:50:14.035Z,40.20
2022-08-01T10:51:19.408Z,40.25
2022-08-01T10:52:22.741Z,40.37
2022-08-01T10:53:31.953Z,40.39
2022-08-01T10:54:31.321Z,40.52
2022-08-01T10:57:00.598Z,40.82
2022-08-01T10:58:02.869Z,40.96
2022-08-01T10:59:06.592Z,40.97
2022-08-01T11:00:12.340Z,40.94
2022-08-01T11:01:20.407Z,40.99
2022-08-01T11:02:32.180Z,41.00
2022-08-01T11:03:55.661Z,40.97
2022-08-01T11:05:14.219Z,40.96
2022-08-01T11:07:48.199Z,40.98
2022-08-01T11:08:53.090Z,41.06
2022-08-01T11:11:14.741Z,41.09
2022-08-01T11:12:24.958Z,41.08
2022-08-01T11:13:40.153Z,41.07
2022-08-01T11:16:26.561Z,41.04
2022-08-01T11:17:46.225Z,41.06
2022-08-01T11:18:50.639Z,40.99
2022-08-01T11:20:09.169Z,41.02
2022-08-01T11:21:59.764Z,41.05
2022-08-01T11:22:16.557Z,41.01
2022-08-01T11:23:23.269Z,40.77
2022-08-01T11:24:50.739Z,40.79
2022-08-01T11:26:03.332Z,40.78
2022-08-01T11:27:23.571Z,40.66
2022-08-01T11:28:34.687Z,40.70
2022-08-01T11:29:30.623Z,40.79
2022-08-01T11:30:34.319Z,40.76
2022-08-01T11:31:38.290Z,40.86
2022-08-01T11:33:12.106Z,40.88
2022-08-01T11:34:03.357Z,41.36
2022-08-01T11:35:05.239Z,41.51
2022-08-01T11:36:15.779Z,41.71
2022-08-01T11:38:42.108Z,41.96
2022-08-01T11:39:49.443Z,42.05
2022-08-01T11:41:12.340Z,41.97
2022-08-01T11:42:19.692Z,42.10
2022-08-01T11:43:24.621Z,42.09
2022-08-01T11:44:27.655Z,42.02
2022-08-01T11:47:09.879Z,41.73
2022-08-01T11:48:27.530Z,41.64
2022-08-01T11:49:39.336Z,41.32
2022-08-01T11:50:43.699Z,40.69
2022-08-01T11:51:46.925Z,40.78
2022-08-01T11:52:55.656Z,40.84
2022-08-01T11:53:58.862Z,40.70
2022-08-01T11:55:10.266Z,40.55
2022-08-01T11:56:11.670Z,40.49
2022-08-01T11:57:17.264Z,40.37
2022-08-01T11:58:29.329Z,40.25
2022-08-01T11:59:28.735Z,40.18
2022-08-01T12:00:35.236Z,39.86
2022-08-01T12:01:38.843Z,39.86
2022-08-01T12:02:45.461Z,39.81
2022-08-01T12:03:52.036Z,39.63
2022-08-01T12:05:08.491Z,39.43
2022-08-01T12:06:11.433Z,39.46
2022-08-01T12:07:15.621Z,39.34
2022-08-01T12:09:42.648Z,39.53
2022-08-01T12:10:49.716Z,39.49
2022-08-01T12:11:52.849Z,39.48
2022-08-01T12:12:58.786Z,39.40
2022-08-01T12:14:01.445Z,39.33
2022-08-01T12:15:06.393Z,39.25
2022-08-01T12:16:11.400Z,39.22
2022-08-01T12:17:13.869Z,39.14
2022-08-01T12:18:16.265Z,39.07
2022-08-01T12:19:22.686Z,39.08
2022-08-01T12:21:41.543Z,39.08
2022-08-01T12:22:43.930Z,39.01
2022-08-01T12:23:46.266Z,38.95
2022-08-01T12:24:51.299Z,38.28
2022-08-01T12:25:54.434Z,38.28
2022-08-01T12:26:56.903Z,37.89
2022-08-01T12:28:04.204Z,37.69
2022-08-01T12:29:07.293Z,37.63
2022-08-01T12:30:11.937Z,37.92
2022-08-01T12:31:15.912Z,37.90
2022-08-01T12:33:35.250Z,38.02
2022-08-01T12:34:38.599Z,38.01
2022-08-01T12:35:41.300Z,38.12
2022-08-01T12:36:45.435Z,38.20
2022-08-01T12:37:49.354Z,38.26
2022-08-01T12:38:54.554Z,38.30
2022-08-01T12:39:57.065Z,38.34
2022-08-01T12:41:01.128Z,38.38
2022-08-01T12:42:08.497Z,38.37
2022-08-01T12:43:15.643Z,38.32
2022-08-01T12:44:15.890Z,38.32
2022-08-01T12:46:31.927Z,38.53
2022-08-01T12:47:35.616Z,38.65
2022-08-01T12:48:37.985Z,38.72
2022-08-01T12:49:42.347Z,38.82
2022-08-01T12:51:58.709Z,38.89
2022-08-01T12:53:01.828Z,38.82
2022-08-01T12:54:04.890Z,38.76
2022-08-01T12:55:15.709Z,38.61
2022-08-01T12:56:19.698Z,38.51
2022-08-01T12:57:24.978Z,38.45
2022-08-01T12:58:33.786Z,38.40
2022-08-01T12:59:36.680Z,38.26
2022-08-01T13:00:42.769Z,38.11
2022-08-01T13:01:46.164Z,38.06
2022-08-01T13:02:50.985Z,37.95
2022-08-01T13:04:01.791Z,37.95
2022-08-01T13:05:05.912Z,37.91
2022-08-01T13:06:13.070Z,37.95
2022-08-01T13:07:17.070Z,37.88
2022-08-01T13:08:21.891Z,37.83
2022-08-01T13:09:24.353Z,37.85
2022-08-01T13:10:29.789Z,37.94
2022-08-01T13:11:32.324Z,37.92
2022-08-01T13:12:35.874Z,38.05
2022-08-01T13:13:40.665Z,38.10
2022-08-01T13:14:44.257Z,38.13
2022-08-01T13:15:46.666Z,38.21
2022-08-01T13:16:57.357Z,38.20
2022-08-01T13:17:54.757Z,38.20
2022-08-01T13:18:57.341Z,38.21
2022-08-01T13:19:59.766Z,38.21
2022-08-01T13:21:14.506Z,38.12
2022-08-01T13:22:17.681Z,38.14
2022-08-01T13:24:00.568Z,38.13
2022-08-01T13:24:25.680Z,38.19
2022-08-01T13:25:29.236Z,38.27
2022-08-01T13:26:44.914Z,38.33
2022-08-01T13:27:53.778Z,38.34
2022-08-01T13:29:06.375Z,38.34
2022-08-01T13:30:20.641Z,38.45
2022-08-01T13:31:23.280Z,38.60
2022-08-01T13:32:29.894Z,38.72
2022-08-01T13:33:45.820Z,38.96
2022-08-01T13:34:50.642Z,38.96
2022-08-01T13:35:54.159Z,38.95
2022-08-01T13:36:58.436Z,39.39
2022-08-01T13:38:00.797Z,39.50
2022-08-01T13:39:03.572Z,39.70
2022-08-01T13:40:07.543Z,39.53
2022-08-01T13:41:10.138Z,39.40
2022-08-01T13:42:18.937Z,39.42
2022-08-01T13:43:19.610Z,39.54
2022-08-01T13:44:21.974Z,39.67
2022-08-01T13:45:26.515Z,39.66
2022-08-01T13:48:03.140Z,39.55
2022-08-01T13:48:50.347Z,39.51
2022-08-01T13:49:53.427Z,39.66
2022-08-01T13:51:13.523Z,39.73
2022-08-01T13:52:01.748Z,39.76
2022-08-01T13:53:04.917Z,39.89
2022-08-01T13:54:07.133Z,39.96
2022-08-01T13:55:11.009Z,40.13
2022-08-01T13:56:15.584Z,40.18
2022-08-01T13:57:18.791Z,40.13
2022-08-01T13:58:21.093Z,40.19
2022-08-01T13:59:23.257Z,40.32
2022-08-01T14:00:26.233Z,40.44
2022-08-01T14:01:33.969Z,40.55
2022-08-01T14:02:34.027Z,40.64
2022-08-01T14:03:37.248Z,40.70
2022-08-01T14:04:40.534Z,40.77
2022-08-01T14:05:44.088Z,40.88
2022-08-01T14:06:46.882Z,40.93
2022-08-01T14:07:49.557Z,41.27
2022-08-01T14:08:53.120Z,41.68
2022-08-01T14:10:04.921Z,41.68
2022-08-01T14:11:00.534Z,41.67
2022-08-01T14:12:05.101Z,41.74
2022-08-01T14:13:08.686Z,41.64
2022-08-01T14:14:13.934Z,41.39
2022-08-01T14:15:37.045Z,41.39
2022-08-01T14:16:21.710Z,41.23
2022-08-01T14:17:24.740Z,41.06
2022-08-01T14:18:27.176Z,41.11
2022-08-01T14:19:38.734Z,41.14
2022-08-01T14:20:37.027Z,41.22
2022-08-01T14:21:40.374Z,41.30
2022-08-01T14:22:43.753Z,41.29
2022-08-01T14:23:46.066Z,41.36
2022-08-01T14:24:48.468Z,41.32
2022-08-01T14:26:00.405Z,41.35
2022-08-01T14:26:55.919Z,41.28
2022-08-01T14:27:58.483Z,41.25
2022-08-01T14:29:00.840Z,41.28
2022-08-01T14:30:07.109Z,41.46